createdAt,value
2023-03-20T00:00:39.820Z,10.80
2023-03-20T00:03:07.394Z,12.50
2023-03-20T00:05:35.209Z,11.07
2023-03-20T00:08:02.989Z,10.30
2023-03-20T00:10:36.067Z,8.70
2023-03-20T00:13:04.483Z,8.57
2023-03-20T00:15:34.293Z,11.23
2023-03-20T00:18:02.074Z,10.63
2023-03-20T00:20:31.585Z,9.57
2023-03-20T00:22:59.305Z,9.57
2023-03-20T00:25:26.904Z,10.27
2023-03-20T00:27:54.545Z,8.97
2023-03-20T00:30:27.108Z,9.07
2023-03-20T00:32:55.139Z,7.97
2023-03-20T00:35:25.764Z,10.00
2023-03-20T00:37:53.556Z,13.33
2023-03-20T00:40:21.314Z,7.30
2023-03-20T00:42:51.152Z,8.83
2023-03-20T00:45:19.638Z,9.90
2023-03-20T00:47:48.298Z,9.70
2023-03-20T00:50:20.411Z,11.23
2023-03-20T00:52:48.217Z,11.40
2023-03-20T00:55:15.828Z,8.13
2023-03-20T00:58:02.926Z,10.97
2023-03-20T01:00:41.327Z,8.97
2023-03-20T01:03:22.418Z,10.97
2023-03-20T01:05:51.098Z,9.53
2023-03-20T01:08:25.465Z,9.97
2023-03-20T01:10:54.835Z,10.97
2023-03-20T01:13:23.527Z,8.50
2023-03-20T01:15:51.948Z,11.97
2023-03-20T01:18:20.312Z,9.50
2023-03-20T01:20:48.282Z,8.03
2023-03-20T01:23:16.197Z,8.93
2023-03-20T01:25:43.848Z,9.93
2023-03-20T01:28:19.111Z,9.77
2023-03-20T01:30:46.930Z,10.33
2023-03-20T01:33:18.555Z,9.77
2023-03-20T01:35:46.824Z,11.07
2023-03-20T01:38:27.762Z,12.20
2023-03-20T01:40:55.290Z,10.13
2023-03-20T01:43:23.670Z,10.00
2023-03-20T01:45:54.064Z,8.13
2023-03-20T01:48:23.066Z,9.63
2023-03-20T01:50:50.553Z,11.50
2023-03-20T01:53:21.347Z,9.93
2023-03-20T01:55:50.927Z,13.07
2023-03-20T01:58:21.793Z,12.07
2023-03-20T02:00:49.306Z,12.17
2023-03-20T02:03:17.307Z,11.27
2023-03-20T02:05:45.299Z,11.83
2023-03-20T02:08:23.333Z,11.47
2023-03-20T02:10:51.011Z,11.43
2023-03-20T02:13:18.739Z,11.30
2023-03-20T02:16:18.672Z,14.50
2023-03-20T02:18:47.992Z,11.30
2023-03-20T02:21:33.595Z,11.73
2023-03-20T02:24:13.355Z,13.10
2023-03-20T02:26:59.005Z,13.53
2023-03-20T02:29:35.928Z,12.63
2023-03-20T02:32:09.448Z,13.23
2023-03-20T02:34:43.132Z,13.43
2023-03-20T02:37:29.424Z,12.63
2023-03-20T02:40:09.171Z,12.47
2023-03-20T02:42:51.345Z,14.80
2023-03-20T02:45:21.991Z,12.63
2023-03-20T02:47:51.916Z,14.93
2023-03-20T02:50:19.434Z,17.07
2023-03-20T02:52:49.644Z,13.70
2023-03-20T02:55:34.622Z,15.47
2023-03-20T02:58:12.229Z,13.43
2023-03-20T03:00:42.855Z,13.47
2023-03-20T03:03:10.348Z,13.40
2023-03-20T03:05:46.111Z,15.33
2023-03-20T03:08:15.251Z,15.13
2023-03-20T03:10:45.573Z,14.47
2023-03-20T03:13:15.950Z,16.23
2023-03-20T03:15:45.993Z,13.37
2023-03-20T03:18:20.245Z,14.83
2023-03-20T03:20:49.198Z,15.60
2023-03-20T03:23:25.607Z,20.27
2023-03-20T03:25:54.252Z,16.83
2023-03-20T03:28:30.547Z,16.97
2023-03-20T03:30:59.057Z,17.87
2023-03-20T03:33:31.130Z,16.63
2023-03-20T03:36:21.759Z,17.00
2023-03-20T03:38:59.305Z,17.13
2023-03-20T03:41:26.842Z,16.90
2023-03-20T03:44:03.308Z,16.80
2023-03-20T03:46:36.953Z,17.17
2023-03-20T03:49:05.177Z,15.27
2023-03-20T03:51:34.008Z,17.47
2023-03-20T03:54:04.658Z,18.50
2023-03-20T03:56:34.483Z,16.60
2023-03-20T03:59:04.874Z,18.40
2023-03-20T04:01:32.829Z,18.23
2023-03-20T04:04:01.559Z,16.57
2023-03-20T04:06:29.207Z,17.90
2023-03-20T04:08:56.797Z,21.63
2023-03-20T04:11:25.044Z,18.77
2023-03-20T04:13:53.186Z,17.27
2023-03-20T04:16:23.740Z,18.77
2023-03-20T04:18:51.485Z,18.77
2023-03-20T04:21:19.011Z,16.17
2023-03-20T04:23:46.840Z,16.77
2023-03-20T04:26:14.347Z,16.23
2023-03-20T04:28:42.029Z,17.83
2023-03-20T04:31:09.575Z,14.80
2023-03-20T04:33:37.145Z,16.40
2023-03-20T04:36:04.911Z,14.50
2023-03-20T04:38:32.540Z,14.33
2023-03-20T04:41:00.095Z,17.67
2023-03-20T04:43:27.760Z,14.30
2023-03-20T04:45:55.434Z,17.57
2023-03-20T04:48:23.131Z,16.20
2023-03-20T04:50:50.619Z,14.50
2023-03-20T04:53:18.933Z,15.03
2023-03-20T04:55:46.523Z,14.27
2023-03-20T04:58:14.185Z,15.43
2023-03-20T05:00:41.831Z,14.90
2023-03-20T05:03:09.688Z,12.60
2023-03-20T05:05:37.456Z,12.37
2023-03-20T05:08:06.105Z,17.20
2023-03-20T05:10:33.752Z,14.53
2023-03-20T05:13:03.226Z,14.77
2023-03-20T05:15:30.739Z,14.30
2023-03-20T05:17:58.317Z,14.40
2023-03-20T05:20:25.898Z,16.17
2023-03-20T05:22:53.477Z,13.87
2023-03-20T05:25:21.099Z,17.20
2023-03-20T05:27:48.712Z,15.73
2023-03-20T05:30:16.493Z,14.63
2023-03-20T05:32:44.115Z,13.90
2023-03-20T05:35:12.040Z,16.97
2023-03-20T05:37:39.800Z,14.10
2023-03-20T05:40:08.077Z,13.47
2023-03-20T05:42:35.671Z,15.03
2023-03-20T05:45:03.200Z,15.80
2023-03-20T05:47:30.801Z,15.07
2023-03-20T05:49:58.317Z,15.03
2023-03-20T05:52:25.891Z,14.23
2023-03-20T05:54:53.382Z,12.93
2023-03-20T05:57:20.926Z,15.77
2023-03-20T05:59:48.442Z,16.57
2023-03-20T06:02:16.060Z,12.80
2023-03-20T06:04:43.562Z,13.20
2023-03-20T06:07:11.147Z,14.67
2023-03-20T06:09:38.662Z,16.33
2023-03-20T06:12:06.251Z,17.90
2023-03-20T06:14:33.760Z,19.47
2023-03-20T06:17:01.490Z,23.93
2023-03-20T06:19:28.975Z,17.43
2023-03-20T06:21:56.609Z,18.93
2023-03-20T06:24:24.122Z,16.73
2023-03-20T06:26:55.195Z,18.57
2023-03-20T06:29:22.953Z,18.90
2023-03-20T06:31:50.574Z,19.57
2023-03-20T06:34:18.133Z,17.83
2023-03-20T06:36:45.756Z,22.57
2023-03-20T06:39:13.321Z,20.03
2023-03-20T06:41:40.984Z,21.97
2023-03-20T06:44:08.460Z,14.43
2023-03-20T06:46:36.155Z,17.63
2023-03-20T06:49:03.680Z,17.43
2023-03-20T06:51:31.307Z,13.87
2023-03-20T06:53:58.851Z,14.87
2023-03-20T06:56:26.418Z,17.30
2023-03-20T06:58:53.949Z,15.93
2023-03-20T07:01:22.356Z,15.00
2023-03-20T07:03:49.922Z,14.87
2023-03-20T07:06:17.610Z,14.00
2023-03-20T07:08:45.330Z,14.50
2023-03-20T07:11:12.936Z,16.33
2023-03-20T07:13:40.438Z,13.70
2023-03-20T07:16:08.492Z,16.17
2023-03-20T07:18:36.048Z,13.93
2023-03-20T07:21:04.985Z,13.80
2023-03-20T07:23:33.224Z,17.30
2023-03-20T07:26:00.965Z,20.80
2023-03-20T07:28:28.506Z,13.47
2023-03-20T07:30:56.163Z,17.23
2023-03-20T07:33:23.785Z,17.00
2023-03-20T07:35:55.248Z,17.00
2023-03-20T07:38:23.475Z,15.53
2023-03-20T07:40:51.071Z,15.27
2023-03-20T07:43:18.653Z,17.37
2023-03-20T07:45:46.207Z,16.70
2023-03-20T07:48:13.741Z,15.30
2023-03-20T07:50:41.262Z,17.27
2023-03-20T07:53:09.004Z,18.30
2023-03-20T07:55:36.659Z,19.70
2023-03-20T07:58:04.521Z,15.10
2023-03-20T08:00:32.221Z,14.30
2023-03-20T08:02:59.948Z,14.87
2023-03-20T08:05:27.527Z,15.50
2023-03-20T08:07:55.467Z,16.83
2023-03-20T08:10:23.285Z,17.07
2023-03-20T08:12:50.964Z,17.03
2023-03-20T08:15:18.556Z,13.67
2023-03-20T08:17:46.351Z,16.40
2023-03-20T08:20:14.823Z,13.40
2023-03-20T08:22:42.781Z,12.80
2023-03-20T08:25:12.082Z,12.60
2023-03-20T08:27:39.719Z,18.27
2023-03-20T08:30:07.554Z,13.37
2023-03-20T08:32:35.374Z,16.27
2023-03-20T08:35:02.960Z,10.57
2023-03-20T08:37:30.570Z,8.80
2023-03-20T08:39:58.197Z,7.30
2023-03-20T08:42:25.819Z,9.43
2023-03-20T08:44:53.416Z,8.90
2023-03-20T08:47:21.044Z,10.03
2023-03-20T08:49:48.600Z,10.87
2023-03-20T08:52:16.119Z,7.77
2023-03-20T08:54:43.670Z,8.37
2023-03-20T08:57:11.211Z,7.23
2023-03-20T08:59:38.755Z,7.97
2023-03-20T09:02:06.429Z,10.90
2023-03-20T09:04:33.994Z,7.03
2023-03-20T09:07:01.593Z,7.63
2023-03-20T09:09:29.889Z,7.80
2023-03-20T09:11:57.785Z,7.07
2023-03-20T09:14:26.421Z,11.03
2023-03-20T09:16:54.414Z,7.30
2023-03-20T09:19:21.924Z,6.40
2023-03-20T09:21:49.748Z,5.90
2023-03-20T09:24:17.291Z,5.87
2023-03-20T09:26:44.936Z,7.57
2023-03-20T09:29:12.540Z,5.57
2023-03-20T09:31:40.046Z,5.23
2023-03-20T09:34:07.605Z,7.20
2023-03-20T09:36:35.377Z,7.33
2023-03-20T09:39:02.913Z,6.37
2023-03-20T09:41:30.557Z,5.90
2023-03-20T09:44:00.830Z,6.87
2023-03-20T09:46:31.575Z,8.83
2023-03-20T09:49:18.229Z,9.40
2023-03-20T09:51:49.308Z,7.27
2023-03-20T09:54:50.691Z,8.83
2023-03-20T09:57:27.235Z,6.57
2023-03-20T09:59:56.667Z,7.13
2023-03-20T10:02:29.731Z,8.00
2023-03-20T10:04:57.468Z,7.63
2023-03-20T10:07:26.164Z,7.47
2023-03-20T10:09:53.734Z,6.90
2023-03-20T10:12:40.047Z,7.47
2023-03-20T10:15:23.046Z,4.67
2023-03-20T10:18:09.252Z,4.67
2023-03-20T10:20:40.721Z,5.93
2023-03-20T10:23:20.868Z,7.43
2023-03-20T10:25:51.528Z,3.03
2023-03-20T10:28:40.254Z,6.13
2023-03-20T10:31:08.038Z,5.57
2023-03-20T10:33:48.216Z,6.63
2023-03-20T10:36:18.660Z,5.07
2023-03-20T10:38:49.224Z,3.90
2023-03-20T10:41:19.325Z,7.57
2023-03-20T10:43:48.272Z,6.27
2023-03-20T10:46:22.401Z,3.53
2023-03-20T10:48:51.607Z,6.37
2023-03-20T10:51:20.820Z,5.23
2023-03-20T10:53:57.300Z,5.00
2023-03-20T10:56:29.801Z,3.93
2023-03-20T10:59:04.282Z,8.33
2023-03-20T11:01:34.399Z,8.93
2023-03-20T11:04:03.241Z,4.67
2023-03-20T11:06:32.745Z,6.30
2023-03-20T11:09:10.836Z,6.87
2023-03-20T11:11:39.673Z,6.20
2023-03-20T11:14:11.374Z,7.47
2023-03-20T11:16:39.605Z,7.20
2023-03-20T11:19:08.431Z,8.60
2023-03-20T11:21:37.644Z,7.57
2023-03-20T11:24:05.266Z,6.47
2023-03-20T11:26:32.809Z,5.23
2023-03-20T11:29:00.713Z,5.53
2023-03-20T11:31:31.388Z,5.47
2023-03-20T11:34:05.126Z,11.00
2023-03-20T11:36:34.384Z,5.30
2023-03-20T11:39:22.132Z,5.47
2023-03-20T11:41:53.973Z,4.97
2023-03-20T11:44:23.472Z,8.27
2023-03-20T11:46:57.953Z,8.73
2023-03-20T11:49:26.415Z,5.13
2023-03-20T11:51:54.535Z,7.27
2023-03-20T11:54:23.539Z,5.40
2023-03-20T11:56:55.808Z,4.87
2023-03-20T11:59:26.680Z,8.17
2023-03-20T12:01:55.390Z,5.47
2023-03-20T12:04:34.225Z,7.03
2023-03-20T12:07:12.218Z,6.67
2023-03-20T12:09:39.816Z,5.20
2023-03-20T12:12:16.520Z,12.07
2023-03-20T12:15:02.642Z,6.43
2023-03-20T12:17:36.321Z,8.93
2023-03-20T12:20:27.089Z,5.57
2023-03-20T12:22:57.788Z,4.50
2023-03-20T12:25:27.325Z,6.23
2023-03-20T12:28:12.050Z,9.13
2023-03-20T12:30:49.562Z,10.03
2023-03-20T12:33:22.056Z,8.67
2023-03-20T12:35:51.899Z,5.93
2023-03-20T12:38:28.567Z,6.83
2023-03-20T12:40:59.495Z,6.63
2023-03-20T12:43:27.588Z,6.00
2023-03-20T12:46:04.146Z,6.33
2023-03-20T12:48:31.758Z,10.57
2023-03-20T12:51:06.994Z,6.50
2023-03-20T12:53:40.808Z,8.37
2023-03-20T12:56:08.388Z,5.70
2023-03-20T12:58:50.156Z,4.60
2023-03-20T13:01:21.824Z,6.57
2023-03-20T13:03:49.485Z,11.13
2023-03-20T13:06:32.345Z,7.20
2023-03-20T13:09:18.816Z,6.27
2023-03-20T13:12:11.380Z,10.50
2023-03-20T13:14:42.196Z,5.90
2023-03-20T13:17:20.210Z,5.97
2023-03-20T13:19:50.777Z,7.30
2023-03-20T13:22:23.736Z,10.97
2023-03-20T13:24:54.970Z,5.50
2023-03-20T13:27:45.500Z,7.77
2023-03-20T13:30:24.259Z,7.03
2023-03-20T13:33:10.654Z,5.17
2023-03-20T13:35:43.898Z,8.30
2023-03-20T13:38:31.703Z,8.77
2023-03-20T13:41:01.155Z,7.30
2023-03-20T13:43:31.737Z,6.60
2023-03-20T13:46:02.438Z,11.10
2023-03-20T13:48:34.934Z,5.77
2023-03-20T13:51:26.591Z,10.43
2023-03-20T13:54:08.289Z,9.23
2023-03-20T13:56:48.175Z,12.33
2023-03-20T13:59:34.390Z,8.00
2023-03-20T14:02:11.873Z,8.43
2023-03-20T14:04:39.858Z,9.67
2023-03-20T14:07:27.649Z,10.57
2023-03-20T14:09:55.707Z,9.20
2023-03-20T14:12:25.975Z,11.67
2023-03-20T14:14:55.645Z,9.00
2023-03-20T14:17:30.403Z,9.07
2023-03-20T14:19:58.746Z,5.40
2023-03-20T14:22:36.147Z,4.80
2023-03-20T14:25:08.550Z,12.57
2023-03-20T14:27:44.504Z,13.97
2023-03-20T14:30:42.018Z,6.03
2023-03-20T14:33:15.603Z,10.87
2023-03-20T14:35:44.787Z,9.43
2023-03-20T14:38:18.836Z,9.47
2023-03-20T14:41:04.996Z,11.10
2023-03-20T14:43:32.614Z,10.67
2023-03-20T14:46:07.502Z,11.73
2023-03-20T14:48:50.578Z,7.77
2023-03-20T14:51:20.989Z,8.47
2023-03-20T14:53:55.845Z,10.70
2023-03-20T14:56:33.164Z,13.07
2023-03-20T14:59:07.121Z,8.43
2023-03-20T15:01:40.796Z,8.27
2023-03-20T15:04:20.730Z,10.80
2023-03-20T15:06:50.244Z,8.50
2023-03-20T15:09:17.976Z,6.53
2023-03-20T15:11:47.092Z,7.87
2023-03-20T15:14:19.368Z,6.73
2023-03-20T15:16:48.099Z,7.93
2023-03-20T15:19:19.648Z,7.50
2023-03-20T15:21:47.877Z,8.43
2023-03-20T15:24:26.021Z,9.93
2023-03-20T15:26:54.839Z,11.20
2023-03-20T15:29:22.665Z,10.43
2023-03-20T15:32:13.277Z,12.47
2023-03-20T15:34:41.891Z,10.00
2023-03-20T15:37:13.464Z,9.37
2023-03-20T15:39:46.474Z,10.17
2023-03-20T15:42:15.337Z,7.87
2023-03-20T15:44:44.424Z,9.37
2023-03-20T15:47:25.145Z,5.90
2023-03-20T15:50:00.889Z,11.07
2023-03-20T15:52:39.749Z,12.37
2023-03-20T15:55:12.104Z,6.93
2023-03-20T15:57:40.955Z,8.90
2023-03-20T16:00:09.988Z,10.20
2023-03-20T16:02:37.995Z,11.17
2023-03-20T16:05:05.894Z,8.77
2023-03-20T16:07:33.674Z,10.90
2023-03-20T16:10:01.707Z,8.50
2023-03-20T16:12:29.292Z,7.13
2023-03-20T16:14:58.447Z,9.37
2023-03-20T16:17:26.630Z,6.40
2023-03-20T16:19:54.230Z,9.50
2023-03-20T16:22:24.628Z,8.00
2023-03-20T16:24:55.528Z,5.70
2023-03-20T16:27:49.663Z,9.23
2023-03-20T16:30:23.369Z,8.87
2023-03-20T16:32:54.872Z,5.47
2023-03-20T16:35:26.291Z,8.40
2023-03-20T16:37:57.991Z,9.03
2023-03-20T16:40:28.752Z,6.43
2023-03-20T16:42:56.407Z,5.73
2023-03-20T16:45:25.628Z,9.17
2023-03-20T16:48:13.160Z,9.33
2023-03-20T16:50:44.756Z,8.13
2023-03-20T16:53:14.641Z,7.23
2023-03-20T16:55:46.856Z,9.47
2023-03-20T16:58:17.609Z,10.57
2023-03-20T17:00:48.996Z,10.23
2023-03-20T17:03:18.501Z,6.17
2023-03-20T17:05:46.079Z,9.87
2023-03-20T17:08:15.299Z,7.70
2023-03-20T17:10:49.649Z,7.23
2023-03-20T17:13:17.330Z,6.37
2023-03-20T17:15:45.278Z,9.17
2023-03-20T17:18:13.795Z,7.77
2023-03-20T17:20:41.583Z,7.17
2023-03-20T17:23:13.357Z,6.23
2023-03-20T17:25:41.034Z,11.23
2023-03-20T17:28:11.660Z,11.33
2023-03-20T17:30:39.532Z,10.20
2023-03-20T17:33:12.248Z,10.13
2023-03-20T17:35:39.930Z,8.80
2023-03-20T17:38:09.653Z,6.10
2023-03-20T17:40:37.463Z,6.87
2023-03-20T17:43:06.506Z,7.53
2023-03-20T17:45:34.093Z,6.10
2023-03-20T17:48:01.696Z,10.50
2023-03-20T17:50:29.317Z,5.77
2023-03-20T17:52:56.797Z,10.80
2023-03-20T17:55:24.415Z,5.00
2023-03-20T17:57:51.977Z,10.83
2023-03-20T18:00:21.856Z,12.30
2023-03-20T18:02:49.680Z,17.97
2023-03-20T18:05:20.490Z,6.73
2023-03-20T18:07:48.113Z,6.90
2023-03-20T18:10:26.904Z,11.77
2023-03-20T18:12:54.637Z,9.53
2023-03-20T18:15:22.137Z,6.80
2023-03-20T18:17:49.723Z,9.37
2023-03-20T18:20:24.002Z,8.23
2023-03-20T18:22:51.873Z,10.13
2023-03-20T18:25:19.561Z,6.87
2023-03-20T18:27:47.162Z,7.53
2023-03-20T18:30:20.510Z,4.60
2023-03-20T18:32:48.233Z,9.90
2023-03-20T18:35:15.877Z,6.13
2023-03-20T18:37:43.666Z,7.77
2023-03-20T18:40:24.616Z,4.93
2023-03-20T18:42:52.637Z,7.17
2023-03-20T18:45:20.444Z,6.70
2023-03-20T18:47:48.263Z,8.50
2023-03-20T18:50:37.619Z,6.30
2023-03-20T18:53:07.516Z,6.97
2023-03-20T18:55:35.440Z,7.37
2023-03-20T18:58:03.232Z,7.07
2023-03-20T19:00:40.168Z,5.57
2023-03-20T19:03:08.644Z,8.93
2023-03-20T19:05:36.324Z,7.40
2023-03-20T19:08:04.324Z,6.77
2023-03-20T19:10:31.821Z,7.03
2023-03-20T19:12:59.412Z,6.00
2023-03-20T19:15:27.925Z,9.10
2023-03-20T19:17:55.805Z,8.67
2023-03-20T19:20:23.430Z,8.60
2023-03-20T19:22:51.077Z,7.40
2023-03-20T19:25:18.572Z,11.07
2023-03-20T19:27:46.417Z,9.10
2023-03-20T19:30:17.206Z,8.03
2023-03-20T19:32:44.761Z,13.13
2023-03-20T19:38:01.933Z,11.43
2023-03-20T19:40:46.168Z,8.37
2023-03-20T19:43:13.937Z,8.57
2023-03-20T19:45:42.408Z,5.80
2023-03-20T19:48:17.565Z,6.10
2023-03-20T19:50:46.861Z,8.40
2023-03-20T19:53:15.719Z,6.33
2023-03-20T19:55:43.312Z,9.03
2023-03-20T19:58:11.067Z,10.33
2023-03-20T20:00:56.923Z,8.07
2023-03-20T20:03:26.080Z,8.83
2023-03-20T20:05:53.841Z,9.73
2023-03-20T20:08:41.299Z,7.30
2023-03-20T20:11:09.414Z,15.23
2023-03-20T20:13:47.052Z,9.43
2023-03-20T20:16:24.546Z,7.40
2023-03-20T20:18:52.103Z,8.70
2023-03-20T20:22:09.859Z,11.63
2023-03-20T20:24:07.361Z,6.57
2023-03-20T20:26:40.532Z,9.23
2023-03-20T20:29:15.357Z,10.73
2023-03-20T20:31:42.917Z,9.33
2023-03-20T20:37:51.630Z,9.43
2023-03-20T20:39:46.199Z,12.47
2023-03-20T20:42:13.809Z,10.50
2023-03-20T20:44:41.554Z,12.83
2023-03-20T20:47:09.302Z,12.57
2023-03-20T20:49:36.895Z,12.83
2023-03-20T20:52:04.729Z,10.03
2023-03-20T20:54:32.313Z,6.93
2023-03-20T20:56:59.926Z,9.17
2023-03-20T20:59:27.566Z,10.50
2023-03-20T21:01:55.231Z,11.60
2023-03-20T21:04:22.986Z,7.43
2023-03-20T21:07:08.742Z,10.77
2023-03-20T21:09:37.515Z,11.87
2023-03-20T21:12:05.204Z,9.40
2023-03-20T21:14:33.124Z,11.53
2023-03-20T21:17:01.625Z,10.13
2023-03-20T21:19:30.411Z,9.27
2023-03-20T21:21:57.985Z,7.00
2023-03-20T21:24:34.498Z,7.17
2023-03-20T21:27:04.754Z,11.47
2023-03-20T21:29:32.306Z,8.10
2023-03-20T21:31:59.958Z,8.03
2023-03-20T21:34:27.593Z,15.90
2023-03-20T21:36:55.841Z,9.97
2023-03-20T21:39:23.510Z,8.20
2023-03-20T21:41:51.036Z,9.53
2023-03-20T21:44:48.265Z,8.67
2023-03-20T21:58:57.488Z,8.03
2023-03-20T22:15:39.332Z,11.83
2023-03-20T22:18:31.007Z,8.47
2023-03-20T22:38:21.750Z,10.93
2023-03-20T22:44:07.736Z,13.93
2023-03-20T22:46:03.423Z,15.23
2023-03-20T22:48:34.428Z,10.30
2023-03-20T22:51:01.948Z,12.60
2023-03-20T22:53:29.544Z,13.20
2023-03-20T22:55:57.282Z,12.80
2023-03-20T22:58:25.245Z,8.97
2023-03-20T23:00:52.786Z,11.97
2023-03-20T23:03:33.731Z,11.10
2023-03-20T23:06:13.033Z,11.77
2023-03-20T23:08:48.995Z,10.57
2023-03-20T23:11:20.268Z,9.63
2023-03-20T23:13:47.883Z,11.37
2023-03-20T23:16:15.580Z,10.93
2023-03-20T23:18:43.128Z,12.53
2023-03-20T23:21:10.967Z,14.60
2023-03-20T23:23:38.507Z,10.57
2023-03-20T23:26:07.149Z,16.03
2023-03-20T23:28:35.318Z,11.43
2023-03-20T23:31:11.224Z,14.07
2023-03-20T23:33:39.701Z,7.83
2023-03-20T23:36:21.454Z,13.07
2023-03-20T23:38:55.102Z,9.83
2023-03-20T23:41:43.418Z,11.67
2023-03-20T23:44:10.267Z,10.33
2023-03-20T23:46:37.801Z,7.70
2023-03-20T23:49:05.439Z,9.73
2023-03-20T23:51:33.059Z,11.80
2023-03-20T23:54:00.624Z,13.60
2023-03-20T23:56:28.180Z,14.30
2023-03-20T23:59:03.171Z,11.87
